Latest Coastal Weather Observations for Maatsuyker Island

IDT60701

Issued at 8:52 am EDT Sunday 4 December 2016 (issued every 10 minutes, with the page automatically refreshed every 10 minutes)

About coastal observations | Map of coastal stations | Coastal observations for TAS | Marine services | Other Formats
Station Details ID: 094041 Name: MAATSUYKER ISLAND LIGHTHOUSE Lat: -43.66 Lon: 146.27 Height: 146.5 m
Data from the previous 72 hours. | See also: Recent months at Maatsuyker Island
Date/Time
EDT
Temp
°C
Wind Pressure Rain since
9am
mm
Weather Cloud Vis
km
Sea
Height
m
Swell
Dir  Spd
kts
Gust
kts
hPa Trend Height
m
Period
s
Dir
04/08:30am 11.7 NNE 1 4 1012.4 - 0.4 - - - - - - -
04/08:00am 10.5 N 3 4 1012.8 - 0.4 - - - - - - -
04/07:30am 9.8 N 5 7 1013.0 - 0.4 - - - - - - -
04/07:00am 9.7 N 6 7 1013.1 - 0.4 - - - - - - -
04/06:30am 9.2 N 7 9 1013.1 - 0.4 - - - - - - -
04/06:00am 9.2 N 8 9 1012.6 F 0.4 Haze Mostly clear 20 <0.1 4.0 13 SW
04/05:30am 9.2 N 8 9 1012.4 - 0.4 - - - - - - -
04/05:00am 9.5 N 10 12 1012.3 - 0.4 - - - - - - -
04/04:30am 9.5 N 9 11 1012.5 - 0.4 - - - - - - -
04/04:00am 9.5 N 8 9 1012.7 - 0.4 - - - - - - -
04/03:30am 9.7 N 10 11 1012.8 - 0.4 - - - - - - -
04/03:00am 10.1 N 10 14 1013.2 - 0.4 - - - - - - -
04/02:30am 9.9 N 8 12 1013.7 - 0.4 - - - - - - -
04/02:00am 10.7 NNW 9 13 1013.9 - 0.4 - - - - - - -
04/01:30am 10.8 NNW 11 15 1014.2 - 0.4 - - - - - - -
04/01:00am 10.9 NNW 11 14 1014.5 - 0.4 - - - - - - -
04/12:30am 10.9 NNW 12 16 1014.7 - 0.4 - - - - - - -
04/12:00am 10.9 NNW 12 15 1015.0 - 0.4 - - - - - - -
 
Date/Time
EDT
Temp
°C
Wind Pressure Rain since
9am
mm
Weather Cloud Vis
km
Sea
Height
m
Swell
Dir  Spd
kts
Gust
kts
hPa Trend Height
m
Period
s
Dir
03/11:30pm 11.0 NNW 13 15 1014.9 - 0.4 - - - - - - -
03/11:00pm 11.0 NNW 11 14 1014.9 - 0.4 - - - - - - -
03/10:30pm 11.2 NNW 17 21 1014.8 - 0.4 - - - - - - -
03/10:00pm 11.3 NNW 20 24 1014.8 - 0.4 - - - - - - -
03/09:30pm 11.3 NNW 22 27 1014.5 - 0.4 - - - - - - -
03/09:00pm 11.4 NNW 20 26 1014.5 - 0.4 - - - - - - -
03/08:30pm 11.4 NNW 22 28 1014.1 - 0.4 - - - - - - -
03/08:00pm 11.7 NNW 23 29 1013.9 - 0.4 - - - - - - -
03/07:30pm 11.6 NNW 28 34 1013.4 - 0.4 - - - - - - -
03/07:00pm 12.0 NNW 27 32 1013.1 - 0.4 - - - - - - -
03/06:30pm 12.4 NNW 25 31 1013.1 - 0.4 - - - - - - -
03/06:00pm 12.7 NNW 24 29 1013.1 - 0.4 - - - - - - -
03/05:30pm 12.0 NW 29 33 1012.8 - 0.4 - - - - - - -
03/05:00pm 12.3 NNW 26 30 1013.1 - 0.4 - - - - - - -
03/04:30pm 12.4 NNW 23 27 1013.2 - 0.4 - - - - - - -
03/04:00pm 11.4 NNW 23 26 1013.3 - 0.4 - - - - - - -
03/03:30pm 11.4 NW 29 32 1013.0 - 0.4 - - - - - - -
03/03:00pm 12.0 NW 29 32 1013.0 - 0.4 - - - - - - -
03/02:30pm 11.8 NW 29 33 1012.9 - 0.4 - - - - - - -
03/02:00pm 11.9 NW 30 34 1012.5 - 0.4 - - - - - - -
03/01:30pm 12.2 NW 30 36 1012.5 - 0.4 - - - - - - -
03/01:00pm 11.8 NNW 31 36 1012.1 - 0.4 - - - - - - -
03/12:30pm 12.3 NW 27 31 1012.7 - 0.4 - - - - - - -
03/12:00pm 10.8 NNW 25 28 1012.8 - 0.4 - - - - - - -
03/11:30am 11.1 NW 28 33 1012.6 - 0.4 - - - - - - -
03/11:00am 9.9 NNW 25 28 1012.7 - 0.4 - - - - - - -
03/10:30am 9.7 NW 27 39 1012.4 - 0.2 - - - - - - -
03/10:00am 9.6 NW 28 32 1012.8 - 0.2 - - - - - - -
03/09:30am 10.7 NW 26 29 1012.3 - 0.0 - - - - - - -
03/09:11am 10.1 NNW 21 24 1012.4 - 0.0 - - - - - - -
03/09:00am 9.1 WNW 33 37 1011.9 R 1.4 Rain Mostly cloudy 15 2 4.5 - SW
03/08:30am 11.1 NNW 28 32 1011.8 - 1.2 - - - - - - -
03/08:00am 10.8 NNW 28 33 1011.5 - 1.2 - - - - - - -
03/07:30am 10.7 NW 31 35 1011.2 - 1.2 - - - - - - -
03/07:00am 10.4 NW 32 36 1010.9 - 1.2 - - - - - - -
03/06:30am 10.3 NW 32 36 1010.5 - 1.2 - - - - - - -
03/06:00am 10.3 W 25 37 1010.3 R 1.2 Haze Partly cloudy 15 2 4.5 13 SW
03/05:30am 10.4 NW 35 39 1009.6 - 1.2 - - - - - - -
03/05:00am 10.2 NW 33 37 1009.1 - 1.2 - - - - - - -
03/04:30am 10.3 NW 34 38 1009.3 - 1.2 - - - - - - -
03/04:00am 10.4 NW 36 40 1008.9 - 1.2 - - - - - - -
03/03:30am 10.3 NW 36 42 1008.4 - 1.2 - - - - - - -
03/03:00am 10.5 NNW 37 44 1008.1 - 1.2 - - - - - - -
03/02:30am 10.5 NW 38 42 1008.3 - 1.2 - - - - - - -
03/02:00am 10.5 NW 39 43 1008.4 - 1.2 - - - - - - -
03/01:30am 10.5 NW 38 44 1008.5 - 1.2 - - - - - - -
03/01:00am 10.3 NW 37 43 1008.5 - 1.2 - - - - - - -
03/12:30am 9.8 NW 41 49 1008.0 - 1.2 - - - - - - -
03/12:18am 11.0 NNW 35 45 1008.2 - 1.2 - - - - - - -
03/12:00am 10.8 NNW 37 44 1007.9 - 1.2 - - - - - - -
 
Date/Time
EDT
Temp
°C
Wind Pressure Rain since
9am
mm
Weather Cloud Vis
km
Sea
Height
m
Swell
Dir  Spd
kts
Gust
kts
hPa Trend Height
m
Period
s
Dir
02/11:30pm 10.5 NNW 40 47 1007.6 - 1.2 - - - - - - -
02/11:00pm 10.5 NNW 41 49 1007.9 - 1.2 - - - - - - -
02/10:32pm 10.0 NNW 35 45 1008.0 - 1.2 - - - - - - -
02/10:30pm 10.0 NNW 35 44 1007.9 - 1.2 - - - - - - -
02/10:19pm 10.5 NNW 37 49 1007.5 - 1.0 - - - - - - -
02/10:00pm 10.7 NNW 33 42 1008.2 - 1.0 - - - - - - -
02/09:30pm 10.7 NNW 33 43 1007.8 - 1.0 - - - - - - -
02/09:06pm 10.9 NNW 37 47 1006.9 - 1.0 - - - - - - -
02/09:00pm 11.2 NNW 37 46 1007.2 - 1.0 - - - - - - -
02/08:48pm 11.0 NW 40 50 1006.8 - 1.0 - - - - - - -
02/08:30pm 10.9 NNW 42 49 1006.3 - 1.0 - - - - - - -
02/08:23pm 10.9 NNW 39 49 1006.5 - 1.0 - - - - - - -
02/08:00pm 11.3 NNW 36 43 1006.5 - 1.0 - - - - - - -
02/07:34pm 11.4 NNW 33 43 1006.5 - 1.0 - - - - - - -
02/07:30pm 11.5 NNW 33 39 1006.5 - 1.0 - - - - - - -
02/07:00pm 11.5 NNW 33 40 1006.1 - 1.0 - - - - - - -
02/06:32pm 11.3 NNW 36 48 1005.6 - 1.0 - - - - - - -
02/06:30pm 11.4 NNW 35 42 1005.9 - 1.0 - - - - - - -
02/06:04pm 10.0 NW 40 50 1006.0 - 1.0 - - - - - - -
02/06:00pm 9.9 NW 43 50 1005.6 - 1.0 - - - - - - -
02/05:52pm 10.2 NNW 38 49 1005.5 - 0.8 - - - - - - -
02/05:30pm 11.9 NW 38 43 1005.5 - 0.8 - - - - - - -
02/05:00pm 12.1 NNW 35 42 1005.2 - 0.8 - - - - - - -
02/04:30pm 12.0 NW 39 44 1005.1 - 0.8 - - - - - - -
02/04:00pm 11.8 NNW 39 46 1004.7 - 0.8 - - - - - - -
02/03:30pm 11.2 NNW 37 44 1004.9 - 0.8 - - - - - - -
02/03:09pm 9.6 NNW 36 40 1004.9 - 0.8 - - - - - - -
02/03:07pm 8.9 NW 47 57 1004.8 - 0.8 - - - - - - -
02/03:00pm 9.1 NW 48 56 1003.7 - 0.6 - - - - - - -
02/02:54pm 11.0 NW 45 51 1004.9 - 0.6 - - - - - - -
02/02:30pm 11.3 NNW 33 39 1004.7 - 0.6 - - - - - - -
02/02:11pm 10.3 NNW 31 42 1004.9 - 0.4 - - - - - - -
02/02:00pm 9.5 NNW 34 41 1004.8 - 0.4 - - - - - - -
02/01:58pm 9.3 NNW 35 41 1004.6 - 0.4 - - - - - - -
02/01:45pm 11.1 NW 47 52 1004.1 - 0.4 - - - - - - -
02/01:43pm 12.2 NNW 35 48 1004.4 - 0.4 - - - - - - -
02/01:30pm 12.4 NNW 34 41 1004.5 - 0.4 - - - - - - -
02/01:00pm 11.9 NNW 34 40 1004.4 - 0.4 - - - - - - -
02/12:30pm 11.6 NNW 37 44 1003.8 - 0.4 - - - - - - -
02/12:00pm 11.4 NW 36 41 1003.9 - 0.4 - - - - - - -
02/11:48am 11.0 NNW 39 49 1003.9 - 0.4 - - - - - - -
02/11:30am 11.7 NW 37 44 1003.8 - 0.4 - - - - - - -
02/11:00am 11.1 NW 35 40 1003.9 - 0.4 - - - - - - -
02/10:30am 10.8 NW 38 43 1003.9 - 0.4 - - - - - - -
02/10:00am 10.5 NW 35 41 1003.4 - 0.4 - - - - - - -
02/09:35am 8.9 NNW 34 40 1003.0 - 0.4 - - - - - - -
02/09:30am 9.1 NW 44 49 1002.3 - 0.2 - - - - - - -
02/09:27am 9.2 NW 44 48 1002.6 - 0.0 - - - - - - -
02/09:21am 10.6 NW 33 43 1003.1 - 0.0 - - - - - - -
02/09:00am 10.8 NW 35 39 1003.0 R 1.8 Recent precip. Partly cloudy 15 2 1.5 11 S
02/08:30am 10.1 NW 35 39 1002.3 - 1.8 - - - - - - -
02/08:00am 10.7 NNW 30 35 1001.6 - 1.8 - - - - - - -
02/07:30am 9.9 NNW 28 31 1001.6 - 1.6 - - - - - - -
02/07:00am 9.6 NW 29 33 1001.1 - 1.2 - - - - - - -
02/06:30am 8.9 NW 33 37 1000.8 - 1.0 - - - - - - -
02/06:00am 10.5 NW 34 - 1000.3 F - Rain Cloudy 0.5 2 1.0 11 SW
02/05:59am 10.9 NW 34 41 1000.2 - 0.2 - - - - - - -
02/05:50am 12.3 NNW 24 34 999.7 - 0.0 - - - - - - -
02/05:30am 12.4 NNW 23 29 999.7 - 0.0 - - - - - - -
02/05:00am 12.2 NNW 22 31 1000.1 - 0.0 - - - - - - -
02/04:30am 12.2 NNW 21 28 1000.4 - 0.0 - - - - - - -
02/04:00am 11.9 NNW 17 22 1000.8 - 0.0 - - - - - - -
02/03:30am 12.1 NNW 18 24 1001.0 - 0.0 - - - - - - -
02/03:00am 12.1 NNW 18 22 1001.0 - 0.0 - - - - - - -
02/02:30am 12.1 NNW 20 27 1001.0 - 0.0 - - - - - - -
02/02:00am 12.1 NNW 18 24 1001.5 - 0.0 - - - - - - -
02/01:30am 11.8 NNW 19 24 1002.0 - 0.0 - - - - - - -
02/01:05am 11.7 NNW 21 33 1001.9 - 0.0 - - - - - - -
02/01:00am 11.9 NNW 20 25 1002.3 - 0.0 - - - - - - -
02/12:30am 12.0 NNW 20 25 1002.7 - 0.0 - - - - - - -
02/12:00am 12.4 NNW 15 20 1003.0 - 0.0 - - - - - - -
 
Date/Time
EDT
Temp
°C
Wind Pressure Rain since
9am
mm
Weather Cloud Vis
km
Sea
Height
m
Swell
Dir  Spd
kts
Gust
kts
hPa Trend Height
m
Period
s
Dir
01/11:30pm 12.6 NNW 17 21 1003.3 - 0.0 - - - - - - -
01/11:00pm 12.6 NNW 18 22 1003.4 - 0.0 - - - - - - -
01/10:30pm 12.5 NNW 17 19 1003.7 - 0.0 - - - - - - -
01/10:00pm 12.7 NNW 16 20 1004.0 - 0.0 - - - - - - -
01/09:30pm 12.6 NNW 17 21 1004.2 - 0.0 - - - - - - -
01/09:00pm 12.6 NNW 22 27 1004.2 - 0.0 - - - - - - -
01/08:30pm 12.7 NNW 21 24 1004.3 - 0.0 - - - - - - -
01/08:00pm 12.7 NNW 20 24 1004.1 - 0.0 - - - - - - -
01/07:30pm 12.6 NW 22 27 1003.7 - 0.0 - - - - - - -
01/07:00pm 12.8 NW 17 20 1003.5 - 0.0 - - - - - - -
01/06:30pm 13.2 NW 17 19 1003.4 - 0.0 - - - - - - -
01/06:00pm 14.2 NW 15 17 1003.6 - 0.0 - - - - - - -
01/05:30pm 14.1 NW 12 14 1003.9 - 0.0 - - - - - - -
01/05:00pm 14.9 NW 12 13 1004.2 - 0.0 - - - - - - -
01/04:30pm 15.6 NW 12 14 1004.6 - 0.0 - - - - - - -
01/04:00pm 16.5 NW 7 9 1004.8 - 0.0 - - - - - - -
01/03:30pm 16.7 NW 6 7 1005.0 - 0.0 - - - - - - -
01/03:00pm 17.0 WNW 5 8 1005.3 - 0.0 - - - - - - -
01/02:30pm 17.0 E 3 4 1005.5 - 0.0 - - - - - - -
01/02:00pm 16.4 ENE 3 5 1005.6 - 0.0 - - - - - - -
01/01:30pm 15.0 E 4 7 1006.0 - 0.0 - - - - - - -
01/01:00pm 14.6 NNE 5 9 1006.2 - 0.0 - - - - - - -
01/12:30pm 14.8 SE 5 13 1006.3 - 0.0 - - - - - - -
01/12:00pm 15.3 N 5 9 1006.6 - 0.0 - - - - - - -
01/11:30am 14.6 ENE 5 11 1006.9 - 0.0 - - - - - - -
01/11:00am 14.9 NW 3 5 1007.2 - 0.0 - - - - - - -
01/10:30am 14.2 NNW 4 8 1007.6 - 0.0 - - - - - - -
01/10:00am 14.6 NE 3 7 1007.7 - 0.0 - - - - - - -
01/09:30am 14.3 NW 2 5 1007.9 - 0.0 - - - - - - -
01/09:00am 13.3 SE 4 7 1008.2 F 0.0 Distant fog Mostly cloudy 25 <0.5 1.0 11 S

Other Formats:

Comma delimited format used in spreadsheet applications
http://www.bom.gov.au/fwo/IDT60701/IDT60701.94962.axf

JavaScript Object Notation format (JSON) in row-major order
http://www.bom.gov.au/fwo/IDT60701/IDT60701.94962.json